sensor_id;sensor_type;location;lat;lon;timestamp;pressure;altitude;pressure_sealevel;temperature;humidity
64064;BME280;50314;50.618;10.642;2023-05-11T00:01:06;96399.53;;;20.04;24.89
64064;BME280;50314;50.618;10.642;2023-05-11T00:03:32;96403.03;;;20.05;24.72
64064;BME280;50314;50.618;10.642;2023-05-11T00:05:58;96406.38;;;20.07;24.55
64064;BME280;50314;50.618;10.642;2023-05-11T00:08:23;96395.84;;;20.05;24.53
64064;BME280;50314;50.618;10.642;2023-05-11T00:10:49;96403.84;;;20.05;24.41
64064;BME280;50314;50.618;10.642;2023-05-11T00:13:15;96399.72;;;20.03;24.71
64064;BME280;50314;50.618;10.642;2023-05-11T00:15:41;96402.56;;;20.01;24.80
64064;BME280;50314;50.618;10.642;2023-05-11T00:18:06;96397.88;;;20.03;24.71
64064;BME280;50314;50.618;10.642;2023-05-11T00:20:31;96396.84;;;20.04;24.39
64064;BME280;50314;50.618;10.642;2023-05-11T00:22:57;96400.56;;;20.03;24.54
64064;BME280;50314;50.618;10.642;2023-05-11T00:25:22;96401.53;;;20.02;24.77
64064;BME280;50314;50.618;10.642;2023-05-11T00:27:48;96397.88;;;20.03;24.50
64064;BME280;50314;50.618;10.642;2023-05-11T00:30:14;96405.22;;;20.01;24.65
64064;BME280;50314;50.618;10.642;2023-05-11T00:32:40;96393.88;;;19.99;24.39
64064;BME280;50314;50.618;10.642;2023-05-11T00:35:06;96395.06;;;19.97;24.41
64064;BME280;50314;50.618;10.642;2023-05-11T00:37:32;96392.56;;;19.95;24.39
64064;BME280;50314;50.618;10.642;2023-05-11T00:39:57;96388.03;;;19.95;24.78
64064;BME280;50314;50.618;10.642;2023-05-11T00:42:23;96391.72;;;19.94;24.54
64064;BME280;50314;50.618;10.642;2023-05-11T00:44:48;96390.06;;;19.93;24.77
64064;BME280;50314;50.618;10.642;2023-05-11T00:47:13;96392.91;;;19.92;24.72
64064;BME280;50314;50.618;10.642;2023-05-11T00:49:40;96390.06;;;19.93;24.64
64064;BME280;50314;50.618;10.642;2023-05-11T00:52:06;96390.72;;;19.95;24.78
64064;BME280;50314;50.618;10.642;2023-05-11T00:54:32;96397.91;;;19.95;24.71
64064;BME280;50314;50.618;10.642;2023-05-11T00:56:59;96392.09;;;19.91;24.63
64064;BME280;50314;50.618;10.642;2023-05-11T00:59:26;96396.59;;;19.91;24.61
64064;BME280;50314;50.618;10.642;2023-05-11T01:01:51;96390.59;;;19.89;24.55
64064;BME280;50314;50.618;10.642;2023-05-11T01:04:17;96393.09;;;19.90;24.45
64064;BME280;50314;50.618;10.642;2023-05-11T01:09:26;96395.94;;;19.89;24.92
64064;BME280;50314;50.618;10.642;2023-05-11T01:15:06;96392.78;;;19.85;24.92
64064;BME280;50314;50.618;10.642;2023-05-11T01:17:49;96390.31;;;19.84;24.76
64064;BME280;50314;50.618;10.642;2023-05-11T01:20:21;96390.31;;;19.84;24.99
64064;BME280;50314;50.618;10.642;2023-05-11T01:22:58;96388.66;;;19.83;25.02
64064;BME280;50314;50.618;10.642;2023-05-11T01:31:09;96390.66;;;19.81;24.50
64064;BME280;50314;50.618;10.642;2023-05-11T01:33:36;96391.97;;;19.85;24.80
64064;BME280;50314;50.618;10.642;2023-05-11T01:36:06;96387.66;;;19.84;24.48
64064;BME280;50314;50.618;10.642;2023-05-11T01:38:36;96379.81;;;19.82;24.90
64064;BME280;50314;50.618;10.642;2023-05-11T01:41:14;96386.34;;;19.80;24.98
64064;BME280;50314;50.618;10.642;2023-05-11T01:43:41;96387.84;;;19.82;24.75
64064;BME280;50314;50.618;10.642;2023-05-11T01:46:09;96388.81;;;19.81;24.87
64064;BME280;50314;50.618;10.642;2023-05-11T01:48:38;96391.50;;;19.81;24.80
64064;BME280;50314;50.618;10.642;2023-05-11T01:51:06;96389.50;;;19.83;24.46
64064;BME280;50314;50.618;10.642;2023-05-11T01:53:34;96386.63;;;19.85;24.43
64064;BME280;50314;50.618;10.642;2023-05-11T01:56:02;96388.47;;;19.84;24.73
64064;BME280;50314;50.618;10.642;2023-05-11T01:58:30;96384.97;;;19.84;24.71
64064;BME280;50314;50.618;10.642;2023-05-11T02:00:57;96388.66;;;19.83;24.64
64064;BME280;50314;50.618;10.642;2023-05-11T02:03:25;96389.50;;;19.83;24.42
64064;BME280;50314;50.618;10.642;2023-05-11T02:05:52;96387.84;;;19.82;24.60
64064;BME280;50314;50.618;10.642;2023-05-11T02:08:19;96386.97;;;19.82;24.43
64064;BME280;50314;50.618;10.642;2023-05-11T02:10:46;96394.00;;;19.83;24.79
64064;BME280;50314;50.618;10.642;2023-05-11T02:13:14;96386.34;;;19.80;24.71
64064;BME280;50314;50.618;10.642;2023-05-11T02:15:41;96385.31;;;19.81;24.39
64064;BME280;50314;50.618;10.642;2023-05-11T02:18:13;96390.00;;;19.79;24.50
64064;BME280;50314;50.618;10.642;2023-05-11T02:20:42;96386.34;;;19.80;24.52
64064;BME280;50314;50.618;10.642;2023-05-11T02:23:09;96382.00;;;19.79;24.81
64064;BME280;50314;50.618;10.642;2023-05-11T02:25:38;96388.19;;;19.79;24.54
64064;BME280;50314;50.618;10.642;2023-05-11T02:28:05;96380.34;;;19.78;24.69
64064;BME280;50314;50.618;10.642;2023-05-11T02:30:31;96386.50;;;19.78;24.90
64064;BME280;50314;50.618;10.642;2023-05-11T02:33:04;96377.84;;;19.76;24.47
64064;BME280;50314;50.618;10.642;2023-05-11T02:35:32;96384.03;;;19.77;24.44
64064;BME280;50314;50.618;10.642;2023-05-11T02:38:01;96380.34;;;19.78;24.50
64064;BME280;50314;50.618;10.642;2023-05-11T02:40:33;96384.19;;;19.75;24.53
64064;BME280;50314;50.618;10.642;2023-05-11T02:43:09;96382.38;;;19.76;24.82
64064;BME280;50314;50.618;10.642;2023-05-11T02:45:36;96378.69;;;19.77;24.77
64064;BME280;50314;50.618;10.642;2023-05-11T02:48:06;96378.03;;;19.75;24.82
64064;BME280;50314;50.618;10.642;2023-05-11T02:50:36;96377.38;;;19.73;24.75
64064;BME280;50314;50.618;10.642;2023-05-11T02:53:06;96376.38;;;19.74;24.55
64064;BME280;50314;50.618;10.642;2023-05-11T02:55:35;96369.38;;;19.73;24.35
64064;BME280;50314;50.618;10.642;2023-05-11T02:58:00;96366.69;;;19.73;24.52
64064;BME280;50314;50.618;10.642;2023-05-11T03:00:26;96378.22;;;19.73;24.54
64064;BME280;50314;50.618;10.642;2023-05-11T03:02:51;96370.38;;;19.71;24.62
64064;BME280;50314;50.618;10.642;2023-05-11T03:05:17;96373.38;;;19.68;24.86
64064;BME280;50314;50.618;10.642;2023-05-11T03:07:42;96376.72;;;19.70;24.65
64064;BME280;50314;50.618;10.642;2023-05-11T03:10:08;96375.06;;;19.69;24.74
64064;BME280;50314;50.618;10.642;2023-05-11T03:12:34;96364.38;;;19.69;24.46
64064;BME280;50314;50.618;10.642;2023-05-11T03:15:01;96372.41;;;19.69;24.71
64064;BME280;50314;50.618;10.642;2023-05-11T03:17:28;96377.75;;;19.69;24.78
64064;BME280;50314;50.618;10.642;2023-05-11T03:19:55;96376.06;;;19.68;24.39
64064;BME280;50314;50.618;10.642;2023-05-11T03:22:22;96372.75;;;19.66;24.47
64064;BME280;50314;50.618;10.642;2023-05-11T03:24:49;96371.72;;;19.67;24.95
64064;BME280;50314;50.618;10.642;2023-05-11T03:27:17;96366.59;;;19.66;24.89
64064;BME280;50314;50.618;10.642;2023-05-11T03:29:43;96370.09;;;19.66;24.90
64064;BME280;50314;50.618;10.642;2023-05-11T03:32:10;96364.75;;;19.66;24.67
64064;BME280;50314;50.618;10.642;2023-05-11T03:34:36;96372.75;;;19.66;24.37
64064;BME280;50314;50.618;10.642;2023-05-11T03:37:03;96366.75;;;19.64;24.91
64064;BME280;50314;50.618;10.642;2023-05-11T03:39:31;96365.09;;;19.63;24.94
64064;BME280;50314;50.618;10.642;2023-05-11T03:41:58;96370.44;;;19.63;24.92
64064;BME280;50314;50.618;10.642;2023-05-11T03:44:26;96359.91;;;19.62;24.59
64064;BME280;50314;50.618;10.642;2023-05-11T03:46:53;96364.28;;;19.63;24.44
64064;BME280;50314;50.618;10.642;2023-05-11T03:49:20;96366.97;;;19.55;24.86
64064;BME280;50314;50.618;10.642;2023-05-11T03:51:46;96367.28;;;19.60;24.47
64064;BME280;50314;50.618;10.642;2023-05-11T03:54:12;96367.28;;;19.60;24.50
64064;BME280;50314;50.618;10.642;2023-05-11T03:56:38;96363.78;;;19.59;24.69
64064;BME280;50314;50.618;10.642;2023-05-11T03:59:04;96369.13;;;19.59;24.89
64064;BME280;50314;50.618;10.642;2023-05-11T04:01:30;96362.13;;;19.58;24.97
64064;BME280;50314;50.618;10.642;2023-05-11T04:03:56;96361.13;;;19.59;24.63
64064;BME280;50314;50.618;10.642;2023-05-11T04:06:22;96365.66;;;19.59;24.70
64064;BME280;50314;50.618;10.642;2023-05-11T04:08:47;96354.97;;;19.59;24.68
64064;BME280;50314;50.618;10.642;2023-05-11T04:11:13;96356.78;;;19.58;24.45
64064;BME280;50314;50.618;10.642;2023-05-11T04:13:38;96358.44;;;19.59;24.68
64064;BME280;50314;50.618;10.642;2023-05-11T04:16:04;96358.63;;;19.58;24.67
64064;BME280;50314;50.618;10.642;2023-05-11T04:18:30;96358.97;;;19.55;24.76
64064;BME280;50314;50.618;10.642;2023-05-11T04:20:55;96351.16;;;19.53;24.56
64064;BME280;50314;50.618;10.642;2023-05-11T04:23:21;96354.84;;;19.52;24.92
64064;BME280;50314;50.618;10.642;2023-05-11T04:25:51;96354.84;;;19.52;24.84
64064;BME280;50314;50.618;10.642;2023-05-11T04:28:16;96357.66;;;19.51;24.99
64064;BME280;50314;50.618;10.642;2023-05-11T04:30:42;96360.53;;;19.49;24.91
64064;BME280;50314;50.618;10.642;2023-05-11T04:33:08;96359.72;;;19.48;24.84
64064;BME280;50314;50.618;10.642;2023-05-11T04:35:38;96363.38;;;19.47;25.00
64064;BME280;50314;50.618;10.642;2023-05-11T04:38:03;96356.84;;;19.50;24.83
64064;BME280;50314;50.618;10.642;2023-05-11T04:40:29;96361.16;;;19.51;24.78
64064;BME280;50314;50.618;10.642;2023-05-11T04:42:54;96367.53;;;19.50;25.25
64064;BME280;50314;50.618;10.642;2023-05-11T04:45:20;96356.84;;;19.50;25.22
64064;BME280;50314;50.618;10.642;2023-05-11T04:47:45;96364.03;;;19.50;24.88
64064;BME280;50314;50.618;10.642;2023-05-11T04:50:10;96364.03;;;19.50;24.73
64064;BME280;50314;50.618;10.642;2023-05-11T04:52:36;96366.69;;;19.50;24.86
64064;BME280;50314;50.618;10.642;2023-05-11T04:55:02;96359.03;;;19.46;24.94
64064;BME280;50314;50.618;10.642;2023-05-11T04:57:27;96359.88;;;19.47;25.07
64064;BME280;50314;50.618;10.642;2023-05-11T04:59:52;96359.72;;;19.48;24.97
64064;BME280;50314;50.618;10.642;2023-05-11T05:02:18;96362.53;;;19.47;25.25
64064;BME280;50314;50.618;10.642;2023-05-11T05:04:44;96361.53;;;19.48;24.77
64064;BME280;50314;50.618;10.642;2023-05-11T05:07:09;96363.19;;;19.49;24.76
64064;BME280;50314;50.618;10.642;2023-05-11T05:09:35;96361.53;;;19.48;24.88
64064;BME280;50314;50.618;10.642;2023-05-11T05:12:00;96364.19;;;19.48;25.17
64064;BME280;50314;50.618;10.642;2023-05-11T05:14:26;96366.69;;;19.50;24.92
64064;BME280;50314;50.618;10.642;2023-05-11T05:16:51;96365.88;;;19.49;24.78
64064;BME280;50314;50.618;10.642;2023-05-11T05:19:18;96370.06;;;19.43;25.28
64064;BME280;50314;50.618;10.642;2023-05-11T05:21:43;96365.88;;;19.49;24.89
64064;BME280;50314;50.618;10.642;2023-05-11T05:24:09;96372.03;;;19.50;25.05
64064;BME280;50314;50.618;10.642;2023-05-11T05:26:36;96370.06;;;19.43;25.55
64064;BME280;50314;50.618;10.642;2023-05-11T05:29:01;96369.38;;;19.50;25.04
64064;BME280;50314;50.618;10.642;2023-05-11T05:31:27;96368.34;;;19.51;25.32
64064;BME280;50314;50.618;10.642;2023-05-11T05:33:52;96370.66;;;19.54;24.79
64064;BME280;50314;50.618;10.642;2023-05-11T05:36:18;96371.50;;;19.54;24.85
64064;BME280;50314;50.618;10.642;2023-05-11T05:38:43;96367.66;;;19.57;25.30
64064;BME280;50314;50.618;10.642;2023-05-11T05:41:09;96371.16;;;19.57;24.92
64064;BME280;50314;50.618;10.642;2023-05-11T05:43:34;96373.81;;;19.57;25.32
64064;BME280;50314;50.618;10.642;2023-05-11T05:45:59;96385.81;;;19.61;25.11
64064;BME280;50314;50.618;10.642;2023-05-11T05:48:25;96376.59;;;19.64;25.04
64064;BME280;50314;50.618;10.642;2023-05-11T05:50:50;96375.44;;;19.66;24.86
64064;BME280;50314;50.618;10.642;2023-05-11T05:53:16;96380.56;;;19.68;24.94
64064;BME280;50314;50.618;10.642;2023-05-11T05:55:41;96380.06;;;19.73;25.49
64064;BME280;50314;50.618;10.642;2023-05-11T05:58:07;96381.34;;;19.77;25.50
64064;BME280;50314;50.618;10.642;2023-05-11T06:00:34;96384.50;;;19.80;25.13
64064;BME280;50314;50.618;10.642;2023-05-11T06:02:59;96383.31;;;19.83;25.27
64064;BME280;50314;50.618;10.642;2023-05-11T06:05:26;96387.28;;;19.87;25.39
64064;BME280;50314;50.618;10.642;2023-05-11T06:07:52;96392.09;;;19.91;25.77
64064;BME280;50314;50.618;10.642;2023-05-11T06:10:17;96389.72;;;19.97;25.47
64064;BME280;50314;50.618;10.642;2023-05-11T06:12:43;96392.88;;;20.00;25.37
64064;BME280;50314;50.618;10.642;2023-05-11T06:15:08;96396.84;;;20.04;25.57
64064;BME280;50314;50.618;10.642;2023-05-11T06:17:34;96395.69;;;20.07;25.54
64064;BME280;50314;50.618;10.642;2023-05-11T06:19:59;96396.97;;;20.11;25.45
64064;BME280;50314;50.618;10.642;2023-05-11T06:22:25;96395.78;;;20.13;25.61
64064;BME280;50314;50.618;10.642;2023-05-11T06:24:50;96386.75;;;20.14;25.54
64064;BME280;50314;50.618;10.642;2023-05-11T06:27:16;96387.19;;;20.18;25.67
64064;BME280;50314;50.618;10.642;2023-05-11T06:29:41;96384.38;;;20.20;25.75
64064;BME280;50314;50.618;10.642;2023-05-11T06:32:07;96390.34;;;20.22;25.90
64064;BME280;50314;50.618;10.642;2023-05-11T06:34:32;96391.16;;;20.22;25.73
64064;BME280;50314;50.618;10.642;2023-05-11T06:36:58;96388.34;;;20.24;25.96
64064;BME280;50314;50.618;10.642;2023-05-11T06:44:34;96386.59;;;20.31;26.01
64064;BME280;50314;50.618;10.642;2023-05-11T06:47:00;96380.06;;;20.33;26.09
64064;BME280;50314;50.618;10.642;2023-05-11T06:49:25;96379.84;;;20.35;25.83
64064;BME280;50314;50.618;10.642;2023-05-11T06:51:51;96392.19;;;20.36;25.69
64064;BME280;50314;50.618;10.642;2023-05-11T06:54:16;96381.16;;;20.39;25.82
64064;BME280;50314;50.618;10.642;2023-05-11T06:56:42;96380.97;;;20.40;25.74
64064;BME280;50314;50.618;10.642;2023-05-11T06:59:07;96378.94;;;20.42;25.82
64064;BME280;50314;50.618;10.642;2023-05-11T07:01:33;96379.78;;;20.43;25.50
64064;BME280;50314;50.618;10.642;2023-05-11T07:03:58;96380.41;;;20.45;25.83
64064;BME280;50314;50.618;10.642;2023-05-11T07:06:24;96380.25;;;20.47;25.74
64064;BME280;50314;50.618;10.642;2023-05-11T07:08:49;96379.22;;;20.48;25.50
64064;BME280;50314;50.618;10.642;2023-05-11T07:11:14;96373.69;;;20.49;25.84
64064;BME280;50314;50.618;10.642;2023-05-11T07:13:40;96377.00;;;20.51;25.87
64064;BME280;50314;50.618;10.642;2023-05-11T07:16:06;96378.66;;;20.52;25.94
64064;BME280;50314;50.618;10.642;2023-05-11T07:18:32;96383.03;;;20.53;25.48
64064;BME280;50314;50.618;10.642;2023-05-11T07:20:57;96387.97;;;20.56;25.72
64064;BME280;50314;50.618;10.642;2023-05-11T07:23:22;96374.44;;;20.58;25.73
64064;BME280;50314;50.618;10.642;2023-05-11T07:25:48;96385.13;;;20.58;25.67
64064;BME280;50314;50.618;10.642;2023-05-11T07:28:13;96382.47;;;20.58;25.66
64064;BME280;50314;50.618;10.642;2023-05-11T07:30:39;96385.81;;;20.60;25.97
64064;BME280;50314;50.618;10.642;2023-05-11T07:33:05;96380.94;;;20.63;25.79
64064;BME280;50314;50.618;10.642;2023-05-11T07:35:31;96382.59;;;20.64;26.07
64064;BME280;50314;50.618;10.642;2023-05-11T07:37:56;96380.53;;;20.67;26.15
64064;BME280;50314;50.618;10.642;2023-05-11T07:40:22;96378.72;;;20.67;25.95
64064;BME280;50314;50.618;10.642;2023-05-11T07:42:47;96383.03;;;20.68;25.89
64064;BME280;50314;50.618;10.642;2023-05-11T07:45:13;96388.41;;;20.68;26.08
64064;BME280;50314;50.618;10.642;2023-05-11T07:47:38;96384.88;;;20.68;25.83
64064;BME280;50314;50.618;10.642;2023-05-11T07:50:04;96383.03;;;20.68;25.67
64064;BME280;50314;50.618;10.642;2023-05-11T07:52:30;96378.72;;;20.67;25.93
64064;BME280;50314;50.618;10.642;2023-05-11T07:54:55;96383.88;;;20.69;25.78
64064;BME280;50314;50.618;10.642;2023-05-11T07:57:21;96384.53;;;20.71;25.57
64064;BME280;50314;50.618;10.642;2023-05-11T07:59:46;96387.19;;;20.71;25.51
64064;BME280;50314;50.618;10.642;2023-05-11T08:02:12;96382.47;;;20.73;25.47
64064;BME280;50314;50.618;10.642;2023-05-11T08:04:38;96386.84;;;20.74;25.56
64064;BME280;50314;50.618;10.642;2023-05-11T08:07:03;96387.66;;;20.74;25.41
64064;BME280;50314;50.618;10.642;2023-05-11T08:09:29;96381.28;;;20.75;25.56
64064;BME280;50314;50.618;10.642;2023-05-11T08:11:54;96389.97;;;20.77;25.47
64064;BME280;50314;50.618;10.642;2023-05-11T08:14:25;96388.75;;;20.80;25.44
64064;BME280;50314;50.618;10.642;2023-05-11T08:16:51;96389.78;;;20.79;25.50
64064;BME280;50314;50.618;10.642;2023-05-11T08:19:16;96386.06;;;20.80;25.47
64064;BME280;50314;50.618;10.642;2023-05-11T08:21:42;96386.91;;;20.80;25.53
64064;BME280;50314;50.618;10.642;2023-05-11T08:24:08;96386.06;;;20.80;25.44
64064;BME280;50314;50.618;10.642;2023-05-11T08:26:34;96386.91;;;20.80;25.30
64064;BME280;50314;50.618;10.642;2023-05-11T08:29:00;96389.59;;;20.80;25.40
64064;BME280;50314;50.618;10.642;2023-05-11T08:31:25;96393.09;;;20.81;25.39
64064;BME280;50314;50.618;10.642;2023-05-11T08:33:51;96390.44;;;20.81;25.35
64064;BME280;50314;50.618;10.642;2023-05-11T08:36:16;96381.38;;;20.82;25.37
64064;BME280;50314;50.618;10.642;2023-05-11T08:38:41;96393.72;;;20.83;25.16
64064;BME280;50314;50.618;10.642;2023-05-11T08:41:10;96392.91;;;20.82;25.32
64064;BME280;50314;50.618;10.642;2023-05-11T08:43:38;96392.72;;;20.84;25.29
64064;BME280;50314;50.618;10.642;2023-05-11T08:46:05;96389.69;;;20.87;25.41
64064;BME280;50314;50.618;10.642;2023-05-11T08:48:33;96384.97;;;20.89;25.29
64064;BME280;50314;50.618;10.642;2023-05-11T08:50:59;96389.13;;;20.92;25.18
64064;BME280;50314;50.618;10.642;2023-05-11T08:53:25;96387.94;;;20.94;25.23
64064;BME280;50314;50.618;10.642;2023-05-11T08:55:51;96384.22;;;20.95;25.26
64064;BME280;50314;50.618;10.642;2023-05-11T08:58:18;96389.56;;;20.95;25.08
64064;BME280;50314;50.618;10.642;2023-05-11T09:00:47;96389.56;;;20.95;25.33
64064;BME280;50314;50.618;10.642;2023-05-11T09:03:15;96393.28;;;20.94;24.99
64064;BME280;50314;50.618;10.642;2023-05-11T09:05:43;96391.59;;;20.93;25.23
64064;BME280;50314;50.618;10.642;2023-05-11T09:08:11;96390.97;;;20.91;25.09
64064;BME280;50314;50.618;10.642;2023-05-11T09:10:38;96389.13;;;20.92;25.13
64064;BME280;50314;50.618;10.642;2023-05-11T09:13:03;96385.63;;;20.91;25.18
64064;BME280;50314;50.618;10.642;2023-05-11T09:15:29;96383.94;;;20.90;25.24
64064;BME280;50314;50.618;10.642;2023-05-11T09:17:55;96390.31;;;20.89;25.35
64064;BME280;50314;50.618;10.642;2023-05-11T09:20:31;96383.69;;;20.85;25.23
64064;BME280;50314;50.618;10.642;2023-05-11T09:22:57;96381.66;;;20.87;25.22
64064;BME280;50314;50.618;10.642;2023-05-11T09:25:24;96380.81;;;20.86;25.03
64064;BME280;50314;50.618;10.642;2023-05-11T09:27:50;96387.00;;;20.87;25.42
64064;BME280;50314;50.618;10.642;2023-05-11T09:30:18;96383.31;;;20.88;25.12
64064;BME280;50314;50.618;10.642;2023-05-11T09:32:59;96379.97;;;20.86;25.43
64064;BME280;50314;50.618;10.642;2023-05-11T09:35:30;96386.16;;;20.86;25.36
64064;BME280;50314;50.618;10.642;2023-05-11T09:38:15;96381.56;;;20.80;25.57
64064;BME280;50314;50.618;10.642;2023-05-11T09:40:49;96387.75;;;20.81;25.57
64064;BME280;50314;50.618;10.642;2023-05-11T09:45:46;96383.69;;;20.85;25.42
64064;BME280;50314;50.618;10.642;2023-05-11T09:50:41;96388.00;;;20.86;25.48
64064;BME280;50314;50.618;10.642;2023-05-11T09:53:06;96379.97;;;20.86;25.44
64064;BME280;50314;50.618;10.642;2023-05-11T09:55:32;96380.81;;;20.86;25.43
64064;BME280;50314;50.618;10.642;2023-05-11T09:57:58;96387.00;;;20.87;25.42
64064;BME280;50314;50.618;10.642;2023-05-11T10:00:24;96381.66;;;20.87;25.36
64064;BME280;50314;50.618;10.642;2023-05-11T10:05:25;96382.47;;;20.87;25.55
64064;BME280;50314;50.618;10.642;2023-05-11T10:08:01;96376.69;;;20.84;25.67
64064;BME280;50314;50.618;10.642;2023-05-11T10:10:29;96377.97;;;20.88;25.29
64064;BME280;50314;50.618;10.642;2023-05-11T10:12:58;96376.94;;;20.89;25.29
64064;BME280;50314;50.618;10.642;2023-05-11T10:15:24;96371.56;;;20.89;25.47
64064;BME280;50314;50.618;10.642;2023-05-11T10:17:54;96377.75;;;20.89;25.04
64064;BME280;50314;50.618;10.642;2023-05-11T10:20:19;96368.06;;;20.88;25.19
64064;BME280;50314;50.618;10.642;2023-05-11T10:22:45;96377.97;;;20.88;25.34
64064;BME280;50314;50.618;10.642;2023-05-11T10:25:11;96377.13;;;20.87;25.17
64064;BME280;50314;50.618;10.642;2023-05-11T10:27:37;96376.31;;;20.87;25.24
64064;BME280;50314;50.618;10.642;2023-05-11T10:30:04;96368.28;;;20.87;25.41
64064;BME280;50314;50.618;10.642;2023-05-11T10:32:35;96375.66;;;20.85;25.35
64064;BME280;50314;50.618;10.642;2023-05-11T10:35:02;96369.28;;;20.86;25.14
64064;BME280;50314;50.618;10.642;2023-05-11T10:37:28;96374.81;;;20.84;25.34
64064;BME280;50314;50.618;10.642;2023-05-11T10:39:53;96365.97;;;20.84;25.39
64064;BME280;50314;50.618;10.642;2023-05-11T10:46:48;96365.06;;;20.77;25.46
64064;BME280;50314;50.618;10.642;2023-05-11T10:48:45;96368.34;;;20.79;25.61
64064;BME280;50314;50.618;10.642;2023-05-11T10:57:07;96369.09;;;20.73;25.49
64064;BME280;50314;50.618;10.642;2023-05-11T11:02:13;96365.88;;;20.77;25.44
64064;BME280;50314;50.618;10.642;2023-05-11T11:07:08;96370.00;;;20.80;25.43
64064;BME280;50314;50.618;10.642;2023-05-11T11:09:57;96374.09;;;20.76;25.40
64064;BME280;50314;50.618;10.642;2023-05-11T11:12:30;96370.00;;;20.80;25.53
64064;BME280;50314;50.618;10.642;2023-05-11T11:15:05;96373.34;;;20.82;25.36
64064;BME280;50314;50.618;10.642;2023-05-11T11:17:32;96375.81;;;20.83;25.42
64064;BME280;50314;50.618;10.642;2023-05-11T11:20:03;96374.81;;;20.84;25.49
64064;BME280;50314;50.618;10.642;2023-05-11T11:25:00;96365.59;;;20.87;25.34
64064;BME280;50314;50.618;10.642;2023-05-11T11:32:46;96371.78;;;20.87;25.34
64064;BME280;50314;50.618;10.642;2023-05-11T11:38:13;96370.75;;;20.88;25.12
64064;BME280;50314;50.618;10.642;2023-05-11T11:40:46;96372.78;;;20.86;25.29
64064;BME280;50314;50.618;10.642;2023-05-11T11:43:15;96369.56;;;20.91;25.12
64064;BME280;50314;50.618;10.642;2023-05-11T11:46:00;96375.44;;;20.86;25.23
64064;BME280;50314;50.618;10.642;2023-05-11T11:48:32;96372.22;;;20.91;25.29
64064;BME280;50314;50.618;10.642;2023-05-11T11:51:07;96375.44;;;20.86;25.25
64064;BME280;50314;50.618;10.642;2023-05-11T11:56:02;96374.91;;;20.91;25.11
64064;BME280;50314;50.618;10.642;2023-05-11T12:01:12;96375.91;;;20.90;24.96
64064;BME280;50314;50.618;10.642;2023-05-11T12:03:39;96382.28;;;20.89;24.76
64064;BME280;50314;50.618;10.642;2023-05-11T12:06:09;96381.47;;;20.88;24.82
64064;BME280;50314;50.618;10.642;2023-05-11T12:08:36;96377.97;;;20.88;25.07
64064;BME280;50314;50.618;10.642;2023-05-11T12:11:02;96373.44;;;20.88;25.09
64064;BME280;50314;50.618;10.642;2023-05-11T12:13:29;96375.09;;;20.89;25.17
64064;BME280;50314;50.618;10.642;2023-05-11T12:16:08;96377.50;;;20.84;25.41
64064;BME280;50314;50.618;10.642;2023-05-11T12:18:34;96376.09;;;20.88;25.22
64064;BME280;50314;50.618;10.642;2023-05-11T12:20:59;96372.59;;;20.88;25.12
64064;BME280;50314;50.618;10.642;2023-05-11T12:23:25;96376.09;;;20.88;25.24
64064;BME280;50314;50.618;10.642;2023-05-11T12:26:04;96372.97;;;20.85;25.25
64064;BME280;50314;50.618;10.642;2023-05-11T12:28:34;96374.25;;;20.89;25.11
64064;BME280;50314;50.618;10.642;2023-05-11T12:31:00;96375.09;;;20.89;25.41
64064;BME280;50314;50.618;10.642;2023-05-11T12:33:25;96380.25;;;20.91;25.36
64064;BME280;50314;50.618;10.642;2023-05-11T12:35:52;96375.72;;;20.92;25.42
64064;BME280;50314;50.618;10.642;2023-05-11T12:38:18;96371.03;;;20.94;25.40
64064;BME280;50314;50.618;10.642;2023-05-11T12:40:51;96372.03;;;20.93;25.41
64064;BME280;50314;50.618;10.642;2023-05-11T12:43:18;96367.78;;;20.98;25.41
64064;BME280;50314;50.618;10.642;2023-05-11T12:45:44;96371.75;;;21.02;25.30
64064;BME280;50314;50.618;10.642;2023-05-11T12:48:11;96360.66;;;21.05;25.34
64064;BME280;50314;50.618;10.642;2023-05-11T12:50:45;96363.34;;;21.05;25.29
64064;BME280;50314;50.618;10.642;2023-05-11T12:53:17;96363.78;;;21.09;25.33
64064;BME280;50314;50.618;10.642;2023-05-11T12:55:44;96372.47;;;21.11;25.26
64064;BME280;50314;50.618;10.642;2023-05-11T12:58:14;96364.63;;;21.09;25.16
64064;BME280;50314;50.618;10.642;2023-05-11T13:00:53;96358.81;;;21.06;25.13
64064;BME280;50314;50.618;10.642;2023-05-11T13:03:27;96361.31;;;21.07;25.20
64064;BME280;50314;50.618;10.642;2023-05-11T13:06:05;96355.97;;;21.07;25.56
64064;BME280;50314;50.618;10.642;2023-05-11T13:08:31;96360.53;;;21.13;25.48
64064;BME280;50314;50.618;10.642;2023-05-11T13:11:24;96365.81;;;21.07;25.87
64064;BME280;50314;50.618;10.642;2023-05-11T13:13:52;96362.41;;;21.13;25.55
64064;BME280;50314;50.618;10.642;2023-05-11T13:16:28;96357.63;;;21.08;25.60
64064;BME280;50314;50.618;10.642;2023-05-11T13:19:04;96357.63;;;21.08;25.49
64064;BME280;50314;50.618;10.642;2023-05-11T13:21:31;96353.16;;;21.16;25.54
64064;BME280;50314;50.618;10.642;2023-05-11T13:23:57;96354.81;;;21.17;25.47
64064;BME280;50314;50.618;10.642;2023-05-11T13:26:29;96349.47;;;21.17;25.34
64064;BME280;50314;50.618;10.642;2023-05-11T13:28:55;96350.78;;;21.21;25.43
64064;BME280;50314;50.618;10.642;2023-05-11T13:31:20;96359.44;;;21.23;25.14
64064;BME280;50314;50.618;10.642;2023-05-11T13:33:48;96352.06;;;21.25;25.21
64064;BME280;50314;50.618;10.642;2023-05-11T13:36:14;96356.41;;;21.26;25.13
64064;BME280;50314;50.618;10.642;2023-05-11T13:38:40;96354.53;;;21.26;25.23
64064;BME280;50314;50.618;10.642;2023-05-11T13:41:05;96356.41;;;21.26;25.18
64064;BME280;50314;50.618;10.642;2023-05-11T13:43:31;96356.41;;;21.26;25.12
64064;BME280;50314;50.618;10.642;2023-05-11T13:45:56;96352.69;;;21.27;25.25